sensor_id;sensor_type;location;lat;lon;timestamp;P1;durP1;ratioP1;P2;durP2;ratioP2
20065;SDS011;10193;48.884;9.182;2023-04-03T00:00:00;2.10;;;1.75;;
20065;SDS011;10193;48.884;9.182;2023-04-03T00:02:28;2.37;;;1.70;;
20065;SDS011;10193;48.884;9.182;2023-04-03T00:04:54;1.93;;;1.83;;
20065;SDS011;10193;48.884;9.182;2023-04-03T00:07:21;1.80;;;1.70;;
20065;SDS011;10193;48.884;9.182;2023-04-03T00:09:48;1.83;;;1.70;;
20065;SDS011;10193;48.884;9.182;2023-04-03T00:12:16;1.70;;;1.60;;
20065;SDS011;10193;48.884;9.182;2023-04-03T00:14:42;1.67;;;1.50;;
20065;SDS011;10193;48.884;9.182;2023-04-03T00:17:09;1.77;;;1.67;;
20065;SDS011;10193;48.884;9.182;2023-04-03T00:19:36;1.87;;;1.77;;
20065;SDS011;10193;48.884;9.182;2023-04-03T00:22:02;2.10;;;1.67;;
20065;SDS011;10193;48.884;9.182;2023-04-03T00:24:29;1.60;;;1.50;;
20065;SDS011;10193;48.884;9.182;2023-04-03T00:26:56;2.50;;;1.90;;
20065;SDS011;10193;48.884;9.182;2023-04-03T00:29:24;1.70;;;1.60;;
20065;SDS011;10193;48.884;9.182;2023-04-03T00:31:50;1.80;;;1.70;;
20065;SDS011;10193;48.884;9.182;2023-04-03T00:34:17;1.60;;;1.50;;
20065;SDS011;10193;48.884;9.182;2023-04-03T00:36:44;1.90;;;1.80;;
20065;SDS011;10193;48.884;9.182;2023-04-03T00:39:11;1.93;;;1.60;;
20065;SDS011;10193;48.884;9.182;2023-04-03T00:41:38;1.70;;;1.60;;
20065;SDS011;10193;48.884;9.182;2023-04-03T00:44:18;1.77;;;1.60;;
20065;SDS011;10193;48.884;9.182;2023-04-03T00:46:47;1.87;;;1.77;;
20065;SDS011;10193;48.884;9.182;2023-04-03T00:49:14;1.70;;;1.60;;
20065;SDS011;10193;48.884;9.182;2023-04-03T00:51:41;1.63;;;1.53;;
20065;SDS011;10193;48.884;9.182;2023-04-03T00:54:08;1.50;;;1.40;;
20065;SDS011;10193;48.884;9.182;2023-04-03T00:56:34;1.90;;;1.67;;
20065;SDS011;10193;48.884;9.182;2023-04-03T00:59:04;1.70;;;1.60;;
20065;SDS011;10193;48.884;9.182;2023-04-03T01:01:34;1.97;;;1.60;;
20065;SDS011;10193;48.884;9.182;2023-04-03T01:04:03;1.70;;;1.60;;
20065;SDS011;10193;48.884;9.182;2023-04-03T01:06:32;1.65;;;1.55;;
20065;SDS011;10193;48.884;9.182;2023-04-03T01:09:02;2.43;;;1.43;;
20065;SDS011;10193;48.884;9.182;2023-04-03T01:11:30;1.60;;;1.50;;
20065;SDS011;10193;48.884;9.182;2023-04-03T01:13:56;1.77;;;1.67;;
20065;SDS011;10193;48.884;9.182;2023-04-03T01:16:23;1.98;;;1.50;;
20065;SDS011;10193;48.884;9.182;2023-04-03T01:18:50;1.73;;;1.63;;
20065;SDS011;10193;48.884;9.182;2023-04-03T01:24:22;2.10;;;1.90;;
20065;SDS011;10193;48.884;9.182;2023-04-03T01:26:57;1.87;;;1.77;;
20065;SDS011;10193;48.884;9.182;2023-04-03T01:29:25;1.47;;;1.37;;
20065;SDS011;10193;48.884;9.182;2023-04-03T01:31:53;1.63;;;1.53;;
20065;SDS011;10193;48.884;9.182;2023-04-03T01:34:21;1.75;;;1.65;;
20065;SDS011;10193;48.884;9.182;2023-04-03T01:36:48;1.97;;;1.87;;
20065;SDS011;10193;48.884;9.182;2023-04-03T01:39:15;2.00;;;1.90;;
20065;SDS011;10193;48.884;9.182;2023-04-03T01:41:42;1.90;;;1.80;;
20065;SDS011;10193;48.884;9.182;2023-04-03T01:44:09;1.97;;;1.87;;
20065;SDS011;10193;48.884;9.182;2023-04-03T01:46:36;1.93;;;1.83;;
20065;SDS011;10193;48.884;9.182;2023-04-03T01:49:04;1.70;;;1.60;;
20065;SDS011;10193;48.884;9.182;2023-04-03T01:51:31;1.97;;;1.87;;
20065;SDS011;10193;48.884;9.182;2023-04-03T01:53:58;1.97;;;1.87;;
20065;SDS011;10193;48.884;9.182;2023-04-03T01:56:24;1.57;;;1.47;;
20065;SDS011;10193;48.884;9.182;2023-04-03T01:58:51;1.87;;;1.70;;
20065;SDS011;10193;48.884;9.182;2023-04-03T02:01:18;1.90;;;1.60;;
20065;SDS011;10193;48.884;9.182;2023-04-03T02:03:45;1.60;;;1.50;;
20065;SDS011;10193;48.884;9.182;2023-04-03T02:06:13;2.00;;;1.90;;
20065;SDS011;10193;48.884;9.182;2023-04-03T02:08:39;1.80;;;1.70;;
20065;SDS011;10193;48.884;9.182;2023-04-03T02:11:06;2.00;;;1.90;;
20065;SDS011;10193;48.884;9.182;2023-04-03T02:13:33;2.03;;;1.93;;
20065;SDS011;10193;48.884;9.182;2023-04-03T02:16:05;2.13;;;1.90;;
20065;SDS011;10193;48.884;9.182;2023-04-03T02:18:32;3.10;;;2.00;;
20065;SDS011;10193;48.884;9.182;2023-04-03T02:20:59;1.92;;;1.73;;
20065;SDS011;10193;48.884;9.182;2023-04-03T02:23:27;2.13;;;1.93;;
20065;SDS011;10193;48.884;9.182;2023-04-03T02:26:01;2.10;;;1.93;;
20065;SDS011;10193;48.884;9.182;2023-04-03T02:28:32;2.10;;;2.00;;
20065;SDS011;10193;48.884;9.182;2023-04-03T02:30:59;2.77;;;2.00;;
20065;SDS011;10193;48.884;9.182;2023-04-03T02:33:26;1.80;;;1.70;;
20065;SDS011;10193;48.884;9.182;2023-04-03T02:35:53;1.50;;;1.40;;
20065;SDS011;10193;48.884;9.182;2023-04-03T02:38:20;2.23;;;1.80;;
20065;SDS011;10193;48.884;9.182;2023-04-03T02:40:48;2.13;;;1.93;;
20065;SDS011;10193;48.884;9.182;2023-04-03T02:43:16;1.80;;;1.70;;
20065;SDS011;10193;48.884;9.182;2023-04-03T02:45:42;1.60;;;1.50;;
20065;SDS011;10193;48.884;9.182;2023-04-03T02:48:09;1.50;;;1.40;;
20065;SDS011;10193;48.884;9.182;2023-04-03T02:50:36;1.80;;;1.70;;
20065;SDS011;10193;48.884;9.182;2023-04-03T02:53:03;2.17;;;1.60;;
20065;SDS011;10193;48.884;9.182;2023-04-03T02:55:30;1.50;;;1.40;;
20065;SDS011;10193;48.884;9.182;2023-04-03T02:57:58;1.83;;;1.73;;
20065;SDS011;10193;48.884;9.182;2023-04-03T03:00:25;1.70;;;1.60;;
20065;SDS011;10193;48.884;9.182;2023-04-03T03:02:51;1.43;;;1.33;;
20065;SDS011;10193;48.884;9.182;2023-04-03T03:05:18;1.77;;;1.63;;
20065;SDS011;10193;48.884;9.182;2023-04-03T03:07:44;1.80;;;1.70;;
20065;SDS011;10193;48.884;9.182;2023-04-03T03:10:11;1.90;;;1.80;;
20065;SDS011;10193;48.884;9.182;2023-04-03T03:12:38;2.00;;;1.90;;
20065;SDS011;10193;48.884;9.182;2023-04-03T03:15:07;2.10;;;2.00;;
20065;SDS011;10193;48.884;9.182;2023-04-03T03:17:34;1.60;;;1.50;;
20065;SDS011;10193;48.884;9.182;2023-04-03T03:20:01;1.80;;;1.70;;
20065;SDS011;10193;48.884;9.182;2023-04-03T03:22:28;1.70;;;1.60;;
20065;SDS011;10193;48.884;9.182;2023-04-03T03:24:55;1.83;;;1.73;;
20065;SDS011;10193;48.884;9.182;2023-04-03T03:27:21;1.90;;;1.80;;
20065;SDS011;10193;48.884;9.182;2023-04-03T03:29:49;1.80;;;1.70;;
20065;SDS011;10193;48.884;9.182;2023-04-03T03:32:17;1.80;;;1.70;;
20065;SDS011;10193;48.884;9.182;2023-04-03T03:34:44;1.43;;;1.33;;
20065;SDS011;10193;48.884;9.182;2023-04-03T03:37:10;1.83;;;1.73;;
20065;SDS011;10193;48.884;9.182;2023-04-03T03:39:37;1.47;;;1.37;;
20065;SDS011;10193;48.884;9.182;2023-04-03T03:42:04;1.90;;;1.80;;
20065;SDS011;10193;48.884;9.182;2023-04-03T03:44:30;2.40;;;1.80;;
20065;SDS011;10193;48.884;9.182;2023-04-03T03:46:57;2.07;;;1.90;;
20065;SDS011;10193;48.884;9.182;2023-04-03T03:49:26;1.70;;;1.60;;
20065;SDS011;10193;48.884;9.182;2023-04-03T03:51:52;1.77;;;1.67;;
20065;SDS011;10193;48.884;9.182;2023-04-03T03:54:19;1.77;;;1.67;;
20065;SDS011;10193;48.884;9.182;2023-04-03T03:56:46;1.70;;;1.60;;
20065;SDS011;10193;48.884;9.182;2023-04-03T03:59:13;1.90;;;1.63;;
20065;SDS011;10193;48.884;9.182;2023-04-03T04:01:40;1.97;;;1.87;;
20065;SDS011;10193;48.884;9.182;2023-04-03T04:04:06;1.70;;;1.60;;
20065;SDS011;10193;48.884;9.182;2023-04-03T04:06:34;1.57;;;1.47;;
20065;SDS011;10193;48.884;9.182;2023-04-03T04:09:01;1.80;;;1.70;;
20065;SDS011;10193;48.884;9.182;2023-04-03T04:11:28;1.90;;;1.80;;
20065;SDS011;10193;48.884;9.182;2023-04-03T04:13:54;2.10;;;1.90;;
20065;SDS011;10193;48.884;9.182;2023-04-03T04:16:21;1.80;;;1.70;;
20065;SDS011;10193;48.884;9.182;2023-04-03T04:18:48;1.60;;;1.50;;
20065;SDS011;10193;48.884;9.182;2023-04-03T04:21:15;1.70;;;1.60;;
20065;SDS011;10193;48.884;9.182;2023-04-03T04:23:43;1.60;;;1.50;;
20065;SDS011;10193;48.884;9.182;2023-04-03T04:26:09;2.40;;;1.63;;
20065;SDS011;10193;48.884;9.182;2023-04-03T04:28:36;1.63;;;1.53;;
20065;SDS011;10193;48.884;9.182;2023-04-03T04:31:03;1.80;;;1.70;;
20065;SDS011;10193;48.884;9.182;2023-04-03T04:33:29;1.67;;;1.57;;
20065;SDS011;10193;48.884;9.182;2023-04-03T04:35:56;1.73;;;1.63;;
20065;SDS011;10193;48.884;9.182;2023-04-03T04:38:23;1.42;;;1.33;;
20065;SDS011;10193;48.884;9.182;2023-04-03T04:40:52;1.83;;;1.73;;
20065;SDS011;10193;48.884;9.182;2023-04-03T04:43:18;1.53;;;1.43;;
20065;SDS011;10193;48.884;9.182;2023-04-03T04:45:45;1.50;;;1.40;;
20065;SDS011;10193;48.884;9.182;2023-04-03T04:48:12;1.43;;;1.33;;
20065;SDS011;10193;48.884;9.182;2023-04-03T04:50:38;1.97;;;1.77;;
20065;SDS011;10193;48.884;9.182;2023-04-03T04:53:05;1.70;;;1.60;;
20065;SDS011;10193;48.884;9.182;2023-04-03T04:55:31;1.73;;;1.50;;
20065;SDS011;10193;48.884;9.182;2023-04-03T04:57:59;1.70;;;1.50;;
20065;SDS011;10193;48.884;9.182;2023-04-03T05:00:26;1.63;;;1.53;;
20065;SDS011;10193;48.884;9.182;2023-04-03T05:02:53;2.77;;;1.60;;
20065;SDS011;10193;48.884;9.182;2023-04-03T05:05:19;1.67;;;1.57;;
20065;SDS011;10193;48.884;9.182;2023-04-03T05:07:47;1.70;;;1.60;;
20065;SDS011;10193;48.884;9.182;2023-04-03T05:10:13;2.88;;;1.80;;
20065;SDS011;10193;48.884;9.182;2023-04-03T05:12:40;1.67;;;1.57;;
20065;SDS011;10193;48.884;9.182;2023-04-03T05:15:09;2.10;;;1.90;;
20065;SDS011;10193;48.884;9.182;2023-04-03T05:17:36;1.80;;;1.70;;
20065;SDS011;10193;48.884;9.182;2023-04-03T05:20:03;2.07;;;1.87;;
20065;SDS011;10193;48.884;9.182;2023-04-03T05:22:30;1.80;;;1.70;;
20065;SDS011;10193;48.884;9.182;2023-04-03T05:24:57;2.10;;;2.00;;
20065;SDS011;10193;48.884;9.182;2023-04-03T05:27:24;1.70;;;1.60;;
20065;SDS011;10193;48.884;9.182;2023-04-03T05:29:53;1.93;;;1.77;;
20065;SDS011;10193;48.884;9.182;2023-04-03T05:32:21;1.70;;;1.60;;
20065;SDS011;10193;48.884;9.182;2023-04-03T05:34:48;1.83;;;1.73;;
20065;SDS011;10193;48.884;9.182;2023-04-03T05:37:15;1.73;;;1.63;;
20065;SDS011;10193;48.884;9.182;2023-04-03T05:39:42;1.73;;;1.63;;
20065;SDS011;10193;48.884;9.182;2023-04-03T05:42:09;1.77;;;1.60;;
20065;SDS011;10193;48.884;9.182;2023-04-03T05:44:36;1.93;;;1.73;;
20065;SDS011;10193;48.884;9.182;2023-04-03T05:47:03;2.00;;;1.80;;
20065;SDS011;10193;48.884;9.182;2023-04-03T05:49:32;1.70;;;1.60;;
20065;SDS011;10193;48.884;9.182;2023-04-03T05:51:58;1.90;;;1.50;;
20065;SDS011;10193;48.884;9.182;2023-04-03T05:54:26;1.93;;;1.80;;
20065;SDS011;10193;48.884;9.182;2023-04-03T05:56:54;2.47;;;1.60;;
20065;SDS011;10193;48.884;9.182;2023-04-03T05:59:21;1.87;;;1.73;;
20065;SDS011;10193;48.884;9.182;2023-04-03T06:01:48;2.30;;;1.70;;
20065;SDS011;10193;48.884;9.182;2023-04-03T06:04:15;2.17;;;1.80;;
20065;SDS011;10193;48.884;9.182;2023-04-03T06:06:44;2.37;;;2.17;;
20065;SDS011;10193;48.884;9.182;2023-04-03T06:09:12;3.13;;;1.80;;
20065;SDS011;10193;48.884;9.182;2023-04-03T06:11:39;2.20;;;2.00;;
20065;SDS011;10193;48.884;9.182;2023-04-03T06:14:06;2.93;;;1.80;;
20065;SDS011;10193;48.884;9.182;2023-04-03T06:16:33;2.63;;;2.10;;
20065;SDS011;10193;48.884;9.182;2023-04-03T06:19:00;2.57;;;1.73;;
20065;SDS011;10193;48.884;9.182;2023-04-03T06:21:27;2.10;;;1.70;;
20065;SDS011;10193;48.884;9.182;2023-04-03T06:23:55;2.78;;;1.75;;
20065;SDS011;10193;48.884;9.182;2023-04-03T06:26:21;1.53;;;1.43;;
20065;SDS011;10193;48.884;9.182;2023-04-03T06:28:48;1.70;;;1.60;;
20065;SDS011;10193;48.884;9.182;2023-04-03T06:31:15;1.87;;;1.60;;
20065;SDS011;10193;48.884;9.182;2023-04-03T06:33:42;1.63;;;1.53;;
20065;SDS011;10193;48.884;9.182;2023-04-03T06:36:09;1.53;;;1.50;;
20065;SDS011;10193;48.884;9.182;2023-04-03T06:38:37;1.70;;;1.60;;
20065;SDS011;10193;48.884;9.182;2023-04-03T06:41:05;1.73;;;1.57;;
20065;SDS011;10193;48.884;9.182;2023-04-03T06:43:32;1.90;;;1.73;;
20065;SDS011;10193;48.884;9.182;2023-04-03T06:45:58;1.87;;;1.67;;
20065;SDS011;10193;48.884;9.182;2023-04-03T06:48:25;1.80;;;1.70;;
20065;SDS011;10193;48.884;9.182;2023-04-03T06:50:52;1.85;;;1.75;;
20065;SDS011;10193;48.884;9.182;2023-04-03T06:53:19;2.30;;;2.10;;
20065;SDS011;10193;48.884;9.182;2023-04-03T06:55:46;2.37;;;2.00;;
20065;SDS011;10193;48.884;9.182;2023-04-03T06:58:14;1.77;;;1.67;;
20065;SDS011;10193;48.884;9.182;2023-04-03T07:00:42;2.23;;;2.00;;
20065;SDS011;10193;48.884;9.182;2023-04-03T07:03:09;3.53;;;2.07;;
20065;SDS011;10193;48.884;9.182;2023-04-03T07:05:35;2.90;;;1.90;;
20065;SDS011;10193;48.884;9.182;2023-04-03T07:08:02;2.95;;;1.98;;
20065;SDS011;10193;48.884;9.182;2023-04-03T07:10:29;2.23;;;2.03;;
20065;SDS011;10193;48.884;9.182;2023-04-03T07:12:55;3.75;;;2.25;;
20065;SDS011;10193;48.884;9.182;2023-04-03T07:15:24;2.38;;;2.00;;
20065;SDS011;10193;48.884;9.182;2023-04-03T07:17:50;2.07;;;1.97;;
20065;SDS011;10193;48.884;9.182;2023-04-03T07:20:17;2.42;;;2.20;;
20065;SDS011;10193;48.884;9.182;2023-04-03T07:22:44;2.67;;;1.88;;
20065;SDS011;10193;48.884;9.182;2023-04-03T07:25:11;2.35;;;1.80;;
20065;SDS011;10193;48.884;9.182;2023-04-03T07:27:38;2.00;;;1.90;;
20065;SDS011;10193;48.884;9.182;2023-04-03T07:30:05;2.03;;;1.90;;
20065;SDS011;10193;48.884;9.182;2023-04-03T07:32:34;2.25;;;2.05;;
20065;SDS011;10193;48.884;9.182;2023-04-03T07:35:00;2.75;;;2.15;;
20065;SDS011;10193;48.884;9.182;2023-04-03T07:37:27;4.07;;;2.40;;
20065;SDS011;10193;48.884;9.182;2023-04-03T07:39:54;2.23;;;2.03;;
20065;SDS011;10193;48.884;9.182;2023-04-03T07:42:22;2.22;;;2.13;;
20065;SDS011;10193;48.884;9.182;2023-04-03T07:44:48;3.15;;;1.92;;
20065;SDS011;10193;48.884;9.182;2023-04-03T07:47:16;2.75;;;2.35;;
20065;SDS011;10193;48.884;9.182;2023-04-03T07:49:44;2.65;;;2.35;;
20065;SDS011;10193;48.884;9.182;2023-04-03T07:52:12;3.70;;;2.13;;
20065;SDS011;10193;48.884;9.182;2023-04-03T07:54:39;2.28;;;2.08;;
20065;SDS011;10193;48.884;9.182;2023-04-03T07:57:06;4.82;;;2.17;;
20065;SDS011;10193;48.884;9.182;2023-04-03T07:59:33;3.10;;;2.17;;
20065;SDS011;10193;48.884;9.182;2023-04-03T08:02:00;3.95;;;2.15;;
20065;SDS011;10193;48.884;9.182;2023-04-03T08:04:29;2.47;;;2.10;;
20065;SDS011;10193;48.884;9.182;2023-04-03T08:06:57;1.90;;;1.80;;
20065;SDS011;10193;48.884;9.182;2023-04-03T08:09:24;2.10;;;1.90;;
20065;SDS011;10193;48.884;9.182;2023-04-03T08:11:51;3.75;;;2.38;;
20065;SDS011;10193;48.884;9.182;2023-04-03T08:14:18;2.80;;;2.05;;
20065;SDS011;10193;48.884;9.182;2023-04-03T08:16:46;2.00;;;1.90;;
20065;SDS011;10193;48.884;9.182;2023-04-03T08:19:13;2.10;;;1.90;;
20065;SDS011;10193;48.884;9.182;2023-04-03T08:21:40;3.30;;;2.10;;
20065;SDS011;10193;48.884;9.182;2023-04-03T08:24:08;2.13;;;2.03;;
20065;SDS011;10193;48.884;9.182;2023-04-03T08:26:36;2.53;;;2.10;;
20065;SDS011;10193;48.884;9.182;2023-04-03T08:29:03;3.45;;;1.70;;
20065;SDS011;10193;48.884;9.182;2023-04-03T08:31:29;2.42;;;2.22;;
20065;SDS011;10193;48.884;9.182;2023-04-03T08:33:56;3.85;;;2.35;;
20065;SDS011;10193;48.884;9.182;2023-04-03T08:36:24;2.78;;;2.10;;
20065;SDS011;10193;48.884;9.182;2023-04-03T08:38:52;3.78;;;2.03;;
20065;SDS011;10193;48.884;9.182;2023-04-03T08:41:24;3.08;;;2.28;;
20065;SDS011;10193;48.884;9.182;2023-04-03T08:43:58;2.65;;;2.33;;
20065;SDS011;10193;48.884;9.182;2023-04-03T08:46:37;3.35;;;2.20;;
20065;SDS011;10193;48.884;9.182;2023-04-03T08:49:14;2.28;;;2.08;;
20065;SDS011;10193;48.884;9.182;2023-04-03T08:51:47;2.22;;;2.03;;
20065;SDS011;10193;48.884;9.182;2023-04-03T08:54:19;2.13;;;2.00;;
20065;SDS011;10193;48.884;9.182;2023-04-03T08:56:52;2.00;;;1.90;;
20065;SDS011;10193;48.884;9.182;2023-04-03T08:59:21;2.05;;;1.95;;
20065;SDS011;10193;48.884;9.182;2023-04-03T09:01:53;2.03;;;1.92;;
20065;SDS011;10193;48.884;9.182;2023-04-03T09:04:20;2.92;;;2.10;;
20065;SDS011;10193;48.884;9.182;2023-04-03T09:06:48;2.30;;;2.10;;
20065;SDS011;10193;48.884;9.182;2023-04-03T09:09:23;2.22;;;1.88;;
20065;SDS011;10193;48.884;9.182;2023-04-03T09:12:00;3.63;;;1.85;;
20065;SDS011;10193;48.884;9.182;2023-04-03T09:14:36;2.75;;;1.85;;
20065;SDS011;10193;48.884;9.182;2023-04-03T09:17:09;2.97;;;1.95;;
20065;SDS011;10193;48.884;9.182;2023-04-03T09:19:41;2.00;;;1.80;;
20065;SDS011;10193;48.884;9.182;2023-04-03T09:22:16;1.85;;;1.73;;
20065;SDS011;10193;48.884;9.182;2023-04-03T09:24:47;1.70;;;1.60;;
20065;SDS011;10193;48.884;9.182;2023-04-03T09:27:19;2.30;;;2.10;;
20065;SDS011;10193;48.884;9.182;2023-04-03T09:29:46;1.83;;;1.60;;
20065;SDS011;10193;48.884;9.182;2023-04-03T09:32:18;3.10;;;1.83;;
20065;SDS011;10193;48.884;9.182;2023-04-03T09:34:48;1.83;;;1.60;;
20065;SDS011;10193;48.884;9.182;2023-04-03T09:40:03;1.67;;;1.58;;
20065;SDS011;10193;48.884;9.182;2023-04-03T09:42:32;1.63;;;1.52;;
20065;SDS011;10193;48.884;9.182;2023-04-03T09:45:18;1.77;;;1.60;;
20065;SDS011;10193;48.884;9.182;2023-04-03T09:47:48;2.33;;;1.60;;
20065;SDS011;10193;48.884;9.182;2023-04-03T09:50:29;1.60;;;1.50;;
20065;SDS011;10193;48.884;9.182;2023-04-03T09:52:57;1.70;;;1.60;;
20065;SDS011;10193;48.884;9.182;2023-04-03T09:55:24;2.47;;;2.08;;
20065;SDS011;10193;48.884;9.182;2023-04-03T09:57:57;2.00;;;1.67;;
20065;SDS011;10193;48.884;9.182;2023-04-03T10:00:25;2.33;;;1.50;;
20065;SDS011;10193;48.884;9.182;2023-04-03T10:02:55;1.55;;;1.45;;
20065;SDS011;10193;48.884;9.182;2023-04-03T10:05:28;3.03;;;1.52;;
20065;SDS011;10193;48.884;9.182;2023-04-03T10:08:08;1.55;;;1.45;;
20065;SDS011;10193;48.884;9.182;2023-04-03T10:10:37;1.50;;;1.33;;
20065;SDS011;10193;48.884;9.182;2023-04-03T10:13:06;2.05;;;1.40;;
20065;SDS011;10193;48.884;9.182;2023-04-03T10:15:35;2.20;;;1.45;;
20065;SDS011;10193;48.884;9.182;2023-04-03T10:18:09;1.27;;;1.20;;
20065;SDS011;10193;48.884;9.182;2023-04-03T10:20:53;1.33;;;1.23;;
20065;SDS011;10193;48.884;9.182;2023-04-03T10:23:24;1.33;;;1.23;;
20065;SDS011;10193;48.884;9.182;2023-04-03T10:25:57;1.40;;;1.30;;
20065;SDS011;10193;48.884;9.182;2023-04-03T10:28:38;1.92;;;1.40;;
20065;SDS011;10193;48.884;9.182;2023-04-03T10:31:12;1.10;;;1.10;;
20065;SDS011;10193;48.884;9.182;2023-04-03T10:33:48;1.52;;;1.38;;
20065;SDS011;10193;48.884;9.182;2023-04-03T10:36:25;1.83;;;1.38;;
20065;SDS011;10193;48.884;9.182;2023-04-03T10:39:01;1.40;;;1.30;;
20065;SDS011;10193;48.884;9.182;2023-04-03T10:41:38;1.45;;;1.35;;
20065;SDS011;10193;48.884;9.182;2023-04-03T10:44:16;1.45;;;1.20;;
20065;SDS011;10193;48.884;9.182;2023-04-03T10:46:52;1.30;;;1.20;;
20065;SDS011;10193;48.884;9.182;2023-04-03T10:49:28;1.10;;;1.10;;
20065;SDS011;10193;48.884;9.182;2023-04-03T10:52:06;1.70;;;1.60;;
20065;SDS011;10193;48.884;9.182;2023-04-03T10:54:41;2.38;;;1.38;;
20065;SDS011;10193;48.884;9.182;2023-04-03T10:57:13;1.45;;;1.35;;
20065;SDS011;10193;48.884;9.182;2023-04-03T10:59:43;1.67;;;1.30;;
20065;SDS011;10193;48.884;9.182;2023-04-03T11:02:14;2.00;;;1.02;;
20065;SDS011;10193;48.884;9.182;2023-04-03T11:04:50;1.85;;;1.20;;
20065;SDS011;10193;48.884;9.182;2023-04-03T11:07:20;1.10;;;1.10;;
20065;SDS011;10193;48.884;9.182;2023-04-03T11:09:50;1.35;;;1.20;;
20065;SDS011;10193;48.884;9.182;2023-04-03T11:12:23;2.10;;;1.20;;
20065;SDS011;10193;48.884;9.182;2023-04-03T11:14:55;2.42;;;1.63;;
20065;SDS011;10193;48.884;9.182;2023-04-03T11:17:26;1.23;;;1.10;;
20065;SDS011;10193;48.884;9.182;2023-04-03T11:19:59;2.17;;;1.65;;
20065;SDS011;10193;48.884;9.182;2023-04-03T11:22:32;1.98;;;1.42;;
20065;SDS011;10193;48.884;9.182;2023-04-03T11:25:02;1.77;;;1.42;;
20065;SDS011;10193;48.884;9.182;2023-04-03T11:27:33;1.40;;;1.30;;
20065;SDS011;10193;48.884;9.182;2023-04-03T11:30:14;1.60;;;1.50;;
20065;SDS011;10193;48.884;9.182;2023-04-03T11:32:49;1.50;;;1.40;;
20065;SDS011;10193;48.884;9.182;2023-04-03T11:35:32;2.05;;;1.48;;
20065;SDS011;10193;48.884;9.182;2023-04-03T11:38:01;1.40;;;1.30;;
20065;SDS011;10193;48.884;9.182;2023-04-03T11:40:31;1.23;;;1.10;;
20065;SDS011;10193;48.884;9.182;2023-04-03T11:43:03;1.40;;;1.27;;
20065;SDS011;10193;48.884;9.182;2023-04-03T11:45:37;2.35;;;1.38;;
20065;SDS011;10193;48.884;9.182;2023-04-03T11:57:42;1.30;;;1.20;;
20065;SDS011;10193;48.884;9.182;2023-04-03T12:03:29;1.85;;;1.30;;
20065;SDS011;10193;48.884;9.182;2023-04-03T12:09:22;1.80;;;1.20;;
20065;SDS011;10193;48.884;9.182;2023-04-03T12:11:54;1.08;;;1.08;;
20065;SDS011;10193;48.884;9.182;2023-04-03T12:14:22;3.03;;;1.27;;
20065;SDS011;10193;48.884;9.182;2023-04-03T12:16:52;1.65;;;1.25;;
20065;SDS011;10193;48.884;9.182;2023-04-03T12:19:32;1.40;;;1.30;;
20065;SDS011;10193;48.884;9.182;2023-04-03T12:22:06;1.20;;;1.10;;
20065;SDS011;10193;48.884;9.182;2023-04-03T12:24:35;1.63;;;1.30;;
20065;SDS011;10193;48.884;9.182;2023-04-03T12:29:59;1.63;;;1.25;;
20065;SDS011;10193;48.884;9.182;2023-04-03T12:35:44;1.45;;;1.13;;
20065;SDS011;10193;48.884;9.182;2023-04-03T12:41:17;2.03;;;1.20;;
20065;SDS011;10193;48.884;9.182;2023-04-03T12:43:50;1.25;;;0.93;;
20065;SDS011;10193;48.884;9.182;2023-04-03T12:46:33;1.48;;;1.30;;
20065;SDS011;10193;48.884;9.182;2023-04-03T12:49:12;2.35;;;1.27;;
20065;SDS011;10193;48.884;9.182;2023-04-03T12:51:48;1.30;;;1.20;;
20065;SDS011;10193;48.884;9.182;2023-04-03T12:54:16;1.00;;;1.00;;
20065;SDS011;10193;48.884;9.182;2023-04-03T12:56:45;2.85;;;1.20;;
20065;SDS011;10193;48.884;9.182;2023-04-03T12:59:13;2.47;;;1.30;;
20065;SDS011;10193;48.884;9.182;2023-04-03T13:01:42;1.55;;;1.25;;
20065;SDS011;10193;48.884;9.182;2023-04-03T13:04:10;1.33;;;1.20;;
20065;SDS011;10193;48.884;9.182;2023-04-03T13:06:38;1.30;;;1.20;;
20065;SDS011;10193;48.884;9.182;2023-04-03T13:09:14;1.40;;;1.23;;
20065;SDS011;10193;48.884;9.182;2023-04-03T13:11:47;4.35;;;1.20;;
20065;SDS011;10193;48.884;9.182;2023-04-03T13:14:17;1.58;;;1.48;;
20065;SDS011;10193;48.884;9.182;2023-04-03T13:16:52;1.58;;;1.25;;
20065;SDS011;10193;48.884;9.182;2023-04-03T13:19:21;1.40;;;1.30;;
20065;SDS011;10193;48.884;9.182;2023-04-03T13:21:49;1.80;;;1.40;;
20065;SDS011;10193;48.884;9.182;2023-04-03T13:24:20;1.25;;;1.15;;
20065;SDS011;10193;48.884;9.182;2023-04-03T13:26:47;1.73;;;1.10;;
20065;SDS011;10193;48.884;9.182;2023-04-03T13:29:19;1.40;;;1.30;;
20065;SDS011;10193;48.884;9.182;2023-04-03T13:31:51;1.73;;;1.30;;
20065;SDS011;10193;48.884;9.182;2023-04-03T13:34:22;1.45;;;1.33;;
20065;SDS011;10193;48.884;9.182;2023-04-03T13:36:55;1.50;;;1.30;;
20065;SDS011;10193;48.884;9.182;2023-04-03T13:39:24;2.38;;;1.60;;
20065;SDS011;10193;48.884;9.182;2023-04-03T13:41:54;1.55;;;1.23;;
20065;SDS011;10193;48.884;9.182;2023-04-03T13:44:26;1.10;;;1.00;;
20065;SDS011;10193;48.884;9.182;2023-04-03T13:46:59;1.95;;;1.20;;
20065;SDS011;10193;48.884;9.182;2023-04-03T13:49:30;1.20;;;1.10;;
20065;SDS011;10193;48.884;9.182;2023-04-03T13:52:00;1.70;;;1.38;;
20065;SDS011;10193;48.884;9.182;2023-04-03T13:54:29;2.28;;;1.35;;
20065;SDS011;10193;48.884;9.182;2023-04-03T13:56:59;1.40;;;1.30;;
20065;SDS011;10193;48.884;9.182;2023-04-03T13:59:27;1.50;;;1.23;;
20065;SDS011;10193;48.884;9.182;2023-04-03T14:01:56;1.48;;;1.20;;
20065;SDS011;10193;48.884;9.182;2023-04-03T14:04:46;1.40;;;1.30;;
20065;SDS011;10193;48.884;9.182;2023-04-03T14:07:18;1.27;;;1.25;;
20065;SDS011;10193;48.884;9.182;2023-04-03T14:09:46;2.08;;;1.52;;
20065;SDS011;10193;48.884;9.182;2023-04-03T14:12:14;2.38;;;1.50;;
20065;SDS011;10193;48.884;9.182;2023-04-03T14:14:44;1.40;;;1.30;;
20065;SDS011;10193;48.884;9.182;2023-04-03T14:17:13;1.30;;;1.20;;
20065;SDS011;10193;48.884;9.182;2023-04-03T14:19:41;1.90;;;1.30;;
20065;SDS011;10193;48.884;9.182;2023-04-03T14:22:14;2.03;;;1.25;;
20065;SDS011;10193;48.884;9.182;2023-04-03T14:24:44;1.58;;;1.48;;
20065;SDS011;10193;48.884;9.182;2023-04-03T14:27:14;1.45;;;1.33;;
20065;SDS011;10193;48.884;9.182;2023-04-03T14:29:43;1.95;;;1.30;;
20065;SDS011;10193;48.884;9.182;2023-04-03T14:32:11;1.63;;;1.17;;
20065;SDS011;10193;48.884;9.182;2023-04-03T14:34:39;1.65;;;1.35;;
20065;SDS011;10193;48.884;9.182;2023-04-03T14:37:09;1.38;;;1.27;;
20065;SDS011;10193;48.884;9.182;2023-04-03T14:39:39;1.55;;;1.45;;
20065;SDS011;10193;48.884;9.182;2023-04-03T14:42:05;1.67;;;1.10;;
20065;SDS011;10193;48.884;9.182;2023-04-03T14:44:37;1.30;;;1.20;;
20065;SDS011;10193;48.884;9.182;2023-04-03T14:47:04;1.05;;;1.02;;
20065;SDS011;10193;48.884;9.182;2023-04-03T14:49:31;1.00;;;1.00;;
20065;SDS011;10193;48.884;9.182;2023-04-03T14:51:58;1.40;;;1.30;;
20065;SDS011;10193;48.884;9.182;2023-04-03T14:54:26;1.98;;;1.25;;
20065;SDS011;10193;48.884;9.182;2023-04-03T14:56:54;1.33;;;1.23;;
20065;SDS011;10193;48.884;9.182;2023-04-03T14:59:22;1.40;;;1.20;;
20065;SDS011;10193;48.884;9.182;2023-04-03T15:01:48;2.35;;;1.20;;
20065;SDS011;10193;48.884;9.182;2023-04-03T15:04:16;1.40;;;1.10;;
20065;SDS011;10193;48.884;9.182;2023-04-03T15:06:44;1.30;;;1.20;;
20065;SDS011;10193;48.884;9.182;2023-04-03T15:09:14;1.48;;;1.33;;
20065;SDS011;10193;48.884;9.182;2023-04-03T15:11:47;1.52;;;1.42;;
20065;SDS011;10193;48.884;9.182;2023-04-03T15:14:14;1.73;;;1.50;;
20065;SDS011;10193;48.884;9.182;2023-04-03T15:16:41;1.30;;;1.20;;
20065;SDS011;10193;48.884;9.182;2023-04-03T15:19:07;1.77;;;1.30;;
20065;SDS011;10193;48.884;9.182;2023-04-03T15:21:34;2.70;;;1.23;;
20065;SDS011;10193;48.884;9.182;2023-04-03T15:24:02;1.27;;;1.17;;
20065;SDS011;10193;48.884;9.182;2023-04-03T15:26:29;2.35;;;1.55;;
20065;SDS011;10193;48.884;9.182;2023-04-03T15:28:58;1.42;;;1.30;;